Time;durP1;ratioP1;P1;durP2;ratioP2;P2;SDS_P1;SDS_P2;PMS_P1;PMS_P2;Temp;Humidity;BMP_temperature;BMP_pressure;BME280_temperature;BME280_humidity;BME280_pressure;Samples;Min_cycle;Max_cycle;Signal;HPM_P1;HPM_P2
2021/01/06 00:00:54;;;;;;;4.00;3.35;;;20.70;44.00;;;;;;5112181;28;20039;-41
2021/01/06 00:03:22;;;;;;;5.63;3.80;;;20.70;43.90;;;;;;5111924;28;20440;-47
2021/01/06 00:05:57;;;;;;;5.25;3.50;;;20.70;43.90;;;;;;5109800;28;20032;-42
2021/01/06 00:08:23;;;;;;;4.97;3.50;;;20.70;43.90;;;;;;5111583;28;20027;-45
2021/01/06 00:10:51;;;;;;;5.28;3.53;;;20.70;44.00;;;;;;5112197;28;20045;-40
2021/01/06 00:13:18;;;;;;;4.65;3.33;;;20.70;44.00;;;;;;5111789;28;20023;-39
2021/01/06 00:15:44;;;;;;;4.20;3.38;;;20.70;44.00;;;;;;5112375;27;20034;-42
2021/01/06 00:18:10;;;;;;;4.88;3.33;;;20.70;43.90;;;;;;5113578;27;20024;-51
2021/01/06 00:20:36;;;;;;;4.35;3.08;;;20.70;43.90;;;;;;5112378;28;20098;-43
2021/01/06 00:23:02;;;;;;;5.25;3.40;;;20.70;43.90;;;;;;5112266;28;20056;-45
2021/01/06 00:25:30;;;;;;;6.35;3.67;;;20.70;43.90;;;;;;5110848;28;20475;-38
2021/01/06 00:27:56;;;;;;;4.45;3.30;;;20.70;43.80;;;;;;5112173;28;20054;-36
2021/01/06 00:30:29;;;;;;;3.63;3.10;;;20.70;43.80;;;;;;5111017;28;20031;-37
2021/01/06 00:32:55;;;;;;;5.03;3.42;;;20.70;44.10;;;;;;5109546;28;20025;-38
2021/01/06 00:35:21;;;;;;;3.78;3.15;;;20.70;43.80;;;;;;5110960;28;20460;-42
2021/01/06 00:37:48;;;;;;;4.13;3.10;;;20.70;43.80;;;;;;5111721;28;20024;-41
2021/01/06 00:40:16;;;;;;;4.28;3.42;;;20.70;43.80;;;;;;5110988;28;20027;-34
2021/01/06 00:42:41;;;;;;;5.07;3.60;;;20.70;43.80;;;;;;5110591;28;20023;-36
2021/01/06 00:45:11;;;;;;;3.88;3.13;;;20.70;43.70;;;;;;5111476;28;20019;-53
2021/01/06 00:47:36;;;;;;;5.25;3.47;;;20.70;43.70;;;;;;5111599;28;20450;-40
2021/01/06 00:50:04;;;;;;;5.45;3.10;;;20.70;43.70;;;;;;5110433;28;20104;-45
2021/01/06 00:52:29;;;;;;;4.20;3.28;;;20.70;43.70;;;;;;5108347;28;20107;-40
2021/01/06 00:54:55;;;;;;;5.13;3.30;;;20.70;43.70;;;;;;5111532;28;20503;-42
2021/01/06 00:57:21;;;;;;;4.70;3.58;;;20.70;43.70;;;;;;5110733;28;20024;-44
2021/01/06 00:59:46;;;;;;;4.45;3.13;;;20.70;43.70;;;;;;5111691;28;20140;-40
2021/01/06 01:02:13;;;;;;;5.18;3.88;;;20.70;43.60;;;;;;5111286;28;20094;-40
2021/01/06 01:04:38;;;;;;;3.95;3.47;;;20.70;43.60;;;;;;5111688;28;20028;-39
2021/01/06 01:07:04;;;;;;;4.25;3.40;;;20.70;43.60;;;;;;5111235;28;20035;-40
2021/01/06 01:09:30;;;;;;;5.05;3.53;;;20.70;43.70;;;;;;5110808;28;20028;-38
2021/01/06 01:11:55;;;;;;;4.03;3.05;;;20.70;43.70;;;;;;5111291;28;20023;-40
2021/01/06 01:14:21;;;;;;;4.65;3.08;;;20.70;43.60;;;;;;5110500;28;20322;-42
2021/01/06 01:16:49;;;;;;;4.40;3.08;;;20.70;43.60;;;;;;5109942;28;20024;-40
2021/01/06 01:19:15;;;;;;;5.05;3.03;;;20.70;43.60;;;;;;5110254;28;20353;-37
2021/01/06 01:21:40;;;;;;;4.80;3.28;;;20.70;43.60;;;;;;5111143;28;20030;-43
2021/01/06 01:24:07;;;;;;;4.60;3.13;;;20.70;43.50;;;;;;5110506;28;20026;-52
2021/01/06 01:26:33;;;;;;;4.38;3.17;;;20.70;43.50;;;;;;5110463;28;20035;-39
2021/01/06 01:28:59;;;;;;;4.90;3.30;;;20.80;43.60;;;;;;5111245;28;20024;-40
2021/01/06 01:31:36;;;;;;;5.60;3.10;;;20.70;43.60;;;;;;5109950;28;20042;-39
2021/01/06 01:34:03;;;;;;;4.07;3.17;;;20.70;43.50;;;;;;5109612;28;20023;-40
2021/01/06 01:36:29;;;;;;;6.63;3.65;;;20.70;43.50;;;;;;5107304;28;20026;-38
2021/01/06 01:38:55;;;;;;;4.22;3.45;;;20.70;43.40;;;;;;5110717;28;20070;-39
2021/01/06 01:41:26;;;;;;;5.80;3.13;;;20.70;43.50;;;;;;5109950;28;20465;-43
2021/01/06 01:43:53;;;;;;;4.35;2.97;;;20.70;43.50;;;;;;5108612;28;20031;-41
2021/01/06 01:46:53;;;;;;;5.50;3.15;;;20.80;43.50;;;;;;5109603;28;20523;-38
2021/01/06 01:49:24;;;;;;;3.60;2.67;;;20.80;43.50;;;;;;5108360;28;20020;-41
2021/01/06 01:52:05;;;;;;;5.32;3.58;;;20.80;43.50;;;;;;5108114;28;20368;-37
2021/01/06 01:54:32;;;;;;;3.45;3.15;;;20.80;43.50;;;;;;5110052;28;20029;-40
2021/01/06 01:57:01;;;;;;;4.10;3.08;;;20.80;43.50;;;;;;5110538;28;20108;-50
2021/01/06 01:59:56;;;;;;;7.60;3.70;;;20.80;43.50;;;;;;5108567;28;20023;-43
2021/01/06 02:02:34;;;;;;;4.78;2.95;;;20.80;43.50;;;;;;5080954;28;20046;-41
2021/01/06 02:05:10;;;;;;;5.05;3.22;;;20.80;43.40;;;;;;5109730;28;20049;-35
2021/01/06 02:07:42;;;;;;;5.45;3.40;;;20.80;43.40;;;;;;5108701;28;20032;-38
2021/01/06 02:10:34;;;;;;;4.00;2.80;;;20.80;43.40;;;;;;5109954;28;20521;-52
2021/01/06 02:13:12;;;;;;;5.65;3.10;;;20.80;43.40;;;;;;5109169;28;20036;-44
2021/01/06 02:16:14;;;;;;;3.97;3.35;;;20.80;43.30;;;;;;5108870;28;20111;-40
2021/01/06 02:18:40;;;;;;;4.38;3.67;;;20.80;43.30;;;;;;5075827;28;20039;-44
2021/01/06 02:21:17;;;;;;;3.67;3.00;;;20.80;43.30;;;;;;5109938;28;20020;-53
2021/01/06 02:23:46;;;;;;;6.22;3.40;;;20.80;43.40;;;;;;5110290;28;20076;-40
2021/01/06 02:26:12;;;;;;;5.13;3.85;;;20.80;43.30;;;;;;5107218;28;20066;-41
2021/01/06 02:28:38;;;;;;;5.00;3.13;;;20.80;43.30;;;;;;5110323;28;20063;-43
2021/01/06 02:31:04;;;;;;;6.30;3.53;;;20.80;43.30;;;;;;5110175;28;20085;-43
2021/01/06 02:33:32;;;;;;;5.20;3.72;;;20.80;43.20;;;;;;5109304;28;20268;-41
2021/01/06 02:35:58;;;;;;;5.25;3.03;;;20.80;43.30;;;;;;5110116;28;20023;-41
2021/01/06 02:38:24;;;;;;;4.45;3.40;;;20.80;43.30;;;;;;5109241;28;20028;-43
2021/01/06 02:40:54;;;;;;;3.50;3.08;;;20.80;43.20;;;;;;5110217;28;20020;-45
2021/01/06 02:43:21;;;;;;;3.88;3.00;;;20.80;43.20;;;;;;5108982;28;20022;-38
2021/01/06 02:45:47;;;;;;;4.78;3.38;;;20.80;43.20;;;;;;5109962;28;20043;-40
2021/01/06 02:48:13;;;;;;;4.40;3.20;;;20.80;43.20;;;;;;5109133;28;20020;-39
2021/01/06 02:50:43;;;;;;;5.00;3.72;;;20.80;43.20;;;;;;5109578;28;20026;-40
2021/01/06 02:53:15;;;;;;;4.15;3.40;;;20.80;43.20;;;;;;5107370;28;20035;-50
2021/01/06 02:55:41;;;;;;;5.90;3.27;;;20.80;43.20;;;;;;5110293;28;20028;-38
2021/01/06 02:58:13;;;;;;;5.43;2.95;;;20.80;43.20;;;;;;5111662;28;20271;-52
2021/01/06 03:00:39;;;;;;;4.65;3.35;;;20.80;43.20;;;;;;5113821;28;20035;-40
2021/01/06 03:03:11;;;;;;;4.38;3.08;;;20.80;43.20;;;;;;5113474;28;20015;-53
2021/01/06 03:05:42;;;;;;;4.38;2.90;;;20.80;43.20;;;;;;5113765;28;20031;-38
2021/01/06 03:08:11;;;;;;;4.80;3.20;;;20.80;43.10;;;;;;5113397;28;20032;-53
2021/01/06 03:10:37;;;;;;;3.65;2.83;;;20.80;43.20;;;;;;5113661;28;20050;-35
2021/01/06 03:13:03;;;;;;;4.15;3.00;;;20.80;43.10;;;;;;5112266;28;20452;-38
2021/01/06 03:15:30;;;;;;;4.15;3.10;;;20.80;43.10;;;;;;5113093;28;20016;-40
2021/01/06 03:17:58;;;;;;;4.28;2.88;;;20.80;43.10;;;;;;5113512;28;20027;-43
2021/01/06 03:20:31;;;;;;;7.57;3.25;;;20.90;43.20;;;;;;5112732;28;20042;-44
2021/01/06 03:23:06;;;;;;;4.35;3.45;;;20.80;43.10;;;;;;5113179;28;20026;-40
2021/01/06 03:25:31;;;;;;;5.43;3.15;;;20.80;43.10;;;;;;5113086;28;20050;-40
2021/01/06 03:27:59;;;;;;;4.80;3.22;;;20.80;43.10;;;;;;5111895;28;20027;-40
2021/01/06 03:30:30;;;;;;;4.03;2.97;;;20.80;43.10;;;;;;5112393;28;20032;-37
2021/01/06 03:33:07;;;;;;;4.95;3.42;;;20.80;43.10;;;;;;5113258;28;20028;-41
2021/01/06 03:35:45;;;;;;;4.85;3.13;;;20.80;43.10;;;;;;5112776;28;20051;-41
2021/01/06 03:38:40;;;;;;;6.28;3.30;;;20.80;43.10;;;;;;5111187;28;20035;-42
2021/01/06 03:41:08;;;;;;;5.15;2.75;;;20.80;43.10;;;;;;5112575;28;20038;-51
2021/01/06 03:43:40;;;;;;;3.78;2.90;;;20.80;43.00;;;;;;5111715;28;20027;-46
2021/01/06 03:46:24;;;;;;;5.13;3.35;;;20.90;43.10;;;;;;5110834;28;20415;-51
2021/01/06 03:48:50;;;;;;;4.97;3.10;;;20.90;43.10;;;;;;5111483;28;20365;-41
2021/01/06 03:51:48;;;;;;;4.65;3.08;;;20.90;43.10;;;;;;5112075;28;20053;-40
2021/01/06 03:54:38;;;;;;;4.90;3.55;;;20.90;43.10;;;;;;5111241;28;20116;-41
2021/01/06 03:57:06;;;;;;;4.68;3.33;;;20.90;43.10;;;;;;5112503;28;20654;-45
2021/01/06 03:59:35;;;;;;;5.13;3.05;;;20.90;43.00;;;;;;5110960;28;20077;-40
2021/01/06 04:02:12;;;;;;;4.40;3.10;;;20.80;43.00;;;;;;5110052;28;20023;-41
2021/01/06 04:05:02;;;;;;;3.60;2.72;;;20.90;43.00;;;;;;5111288;28;20438;-44
2021/01/06 04:07:35;;;;;;;5.70;3.53;;;20.90;43.00;;;;;;5109602;28;20612;-40
2021/01/06 04:10:07;;;;;;;4.60;2.83;;;20.90;43.00;;;;;;5109224;28;20138;-39
2021/01/06 04:12:33;;;;;;;5.43;3.22;;;20.90;43.00;;;;;;5114619;28;20024;-38
2021/01/06 04:14:58;;;;;;;3.83;2.80;;;20.80;42.90;;;;;;5113479;28;20019;-38
2021/01/06 04:17:30;;;;;;;4.45;3.10;;;20.80;42.90;;;;;;5113968;28;20130;-38
2021/01/06 04:20:07;;;;;;;3.72;3.00;;;20.90;43.00;;;;;;5114757;28;20024;-36
2021/01/06 04:22:40;;;;;;;4.50;2.90;;;20.90;42.90;;;;;;5114364;28;20028;-34
2021/01/06 04:25:14;;;;;;;6.22;3.08;;;20.90;42.90;;;;;;5114169;28;20392;-50
2021/01/06 04:27:42;;;;;;;3.83;2.80;;;20.90;42.90;;;;;;5114354;28;20092;-36
2021/01/06 04:30:26;;;;;;;5.32;3.20;;;20.90;43.00;;;;;;5112722;28;20055;-52
2021/01/06 04:32:52;;;;;;;5.07;2.97;;;20.90;42.90;;;;;;5114369;28;20500;-38
2021/01/06 04:35:19;;;;;;;2.95;2.22;;;20.90;42.90;;;;;;5112237;28;20081;-40
2021/01/06 04:37:45;;;;;;;6.68;2.85;;;20.90;42.90;;;;;;5113962;28;20020;-37
2021/01/06 04:40:13;;;;;;;3.08;2.55;;;20.90;42.90;;;;;;5112140;28;20028;-40
2021/01/06 04:42:39;;;;;;;4.15;2.65;;;20.90;42.90;;;;;;5114057;28;20065;-40
2021/01/06 04:45:14;;;;;;;4.03;2.70;;;20.90;42.90;;;;;;5114170;28;20470;-40
2021/01/06 04:47:56;;;;;;;3.78;2.75;;;20.90;42.90;;;;;;5114157;28;20032;-40
2021/01/06 04:50:37;;;;;;;5.00;2.65;;;20.90;42.90;;;;;;5112926;28;20038;-43
2021/01/06 04:53:27;;;;;;;3.15;2.67;;;20.90;42.90;;;;;;5112658;28;20419;-38
2021/01/06 04:56:00;;;;;;;4.32;2.65;;;20.90;42.90;;;;;;5114058;28;20028;-39
2021/01/06 04:59:10;;;;;;;5.28;2.95;;;20.90;42.90;;;;;;5113159;28;20464;-43
2021/01/06 05:02:14;;;;;;;3.88;3.08;;;20.90;42.90;;;;;;5104257;28;20089;-39
2021/01/06 05:05:06;;;;;;;4.25;2.78;;;20.90;42.80;;;;;;5075580;28;20036;-41
2021/01/06 05:07:35;;;;;;;6.22;3.00;;;20.90;42.80;;;;;;5112713;28;20054;-38
2021/01/06 05:10:08;;;;;;;7.53;3.08;;;20.90;42.80;;;;;;5113021;28;20040;-38
2021/01/06 05:12:44;;;;;;;3.10;2.70;;;20.90;42.80;;;;;;5113238;28;20028;-37
2021/01/06 05:15:09;;;;;;;2.90;2.25;;;20.90;42.80;;;;;;5113389;28;20080;-54
2021/01/06 05:17:40;;;;;;;3.83;2.53;;;20.90;42.80;;;;;;5113649;28;20027;-41
2021/01/06 05:20:07;;;;;;;3.83;2.60;;;20.90;42.80;;;;;;5113122;28;20048;-41
2021/01/06 05:22:33;;;;;;;4.90;3.15;;;20.90;43.50;;;;;;5113232;28;20031;-41
2021/01/06 05:24:59;;;;;;;5.35;3.28;;;20.90;42.80;;;;;;5113015;28;20024;-41
2021/01/06 05:27:34;;;;;;;5.35;2.60;;;20.90;42.80;;;;;;5112358;28;20118;-41
2021/01/06 05:30:13;;;;;;;4.15;2.70;;;20.90;42.80;;;;;;5113277;28;20036;-38
2021/01/06 05:32:40;;;;;;;3.55;2.50;;;20.90;42.80;;;;;;5113642;28;20023;-39
2021/01/06 05:35:08;;;;;;;3.13;2.47;;;20.90;42.70;;;;;;5113174;28;20216;-38
2021/01/06 05:37:34;;;;;;;4.30;2.75;;;20.90;42.70;;;;;;5113104;28;20059;-40
2021/01/06 05:40:09;;;;;;;4.45;2.70;;;20.90;42.80;;;;;;5112623;28;20059;-40
2021/01/06 05:42:41;;;;;;;4.10;2.70;;;20.90;42.80;;;;;;5112605;28;20082;-41
2021/01/06 05:45:08;;;;;;;3.33;2.50;;;20.90;42.80;;;;;;5113084;28;20020;-41
2021/01/06 05:47:48;;;;;;;3.80;2.60;;;20.80;42.80;;;;;;5112173;28;20035;-40
2021/01/06 05:50:18;;;;;;;3.42;2.35;;;20.90;42.80;;;;;;5112238;28;20052;-40
2021/01/06 05:53:04;;;;;;;4.18;2.90;;;20.90;42.70;;;;;;5112949;28;20019;-40
2021/01/06 05:55:34;;;;;;;3.55;2.42;;;20.90;42.70;;;;;;5111985;28;20102;-38
2021/01/06 05:58:19;;;;;;;4.03;2.58;;;20.90;42.70;;;;;;5112974;28;20437;-39
2021/01/06 06:00:55;;;;;;;2.75;2.10;;;20.90;42.70;;;;;;5112947;28;20036;-39
2021/01/06 06:03:48;;;;;;;3.95;2.50;;;20.90;42.70;;;;;;5112134;27;20055;-39
2021/01/06 06:06:37;;;;;;;3.90;2.53;;;20.90;42.70;;;;;;5111893;28;20036;-36
2021/01/06 06:09:24;;;;;;;5.57;3.28;;;20.90;42.70;;;;;;5112623;28;20461;-39
2021/01/06 06:12:21;;;;;;;4.13;2.20;;;20.90;42.70;;;;;;5113012;28;20473;-38
2021/01/06 06:15:26;;;;;;;4.18;2.38;;;20.90;42.70;;;;;;5112428;28;20054;-36
2021/01/06 06:18:01;;;;;;;3.63;2.17;;;20.90;42.70;;;;;;5080479;28;20043;-37
2021/01/06 06:20:45;;;;;;;4.10;2.63;;;20.90;42.70;;;;;;5111775;28;20028;-39
2021/01/06 06:23:17;;;;;;;3.40;2.63;;;20.90;42.70;;;;;;5111028;28;20061;-52
2021/01/06 06:26:19;;;;;;;2.65;2.17;;;20.90;43.30;;;;;;5112057;28;20027;-40
2021/01/06 06:28:58;;;;;;;3.45;2.25;;;20.90;42.70;;;;;;5112563;28;20023;-39
2021/01/06 06:31:30;;;;;;;4.60;2.67;;;20.90;42.70;;;;;;5110980;28;20111;-38
2021/01/06 06:34:05;;;;;;;2.55;2.00;;;20.90;42.70;;;;;;5112467;28;20055;-38
2021/01/06 06:36:35;;;;;;;3.53;2.25;;;20.90;42.60;;;;;;5111547;28;20031;-38
2021/01/06 06:39:24;;;;;;;3.08;2.10;;;20.90;42.60;;;;;;5112408;28;20047;-38
2021/01/06 06:41:51;;;;;;;2.40;2.10;;;20.90;42.60;;;;;;5111077;28;20096;-38
2021/01/06 06:44:34;;;;;;;4.80;2.38;;;20.90;42.60;;;;;;5111313;28;20027;-40
2021/01/06 06:47:13;;;;;;;4.00;2.53;;;20.90;42.60;;;;;;5112362;28;20047;-39
2021/01/06 06:49:57;;;;;;;3.42;2.33;;;20.90;42.60;;;;;;5112024;28;20023;-38
2021/01/06 06:52:25;;;;;;;4.15;2.20;;;20.90;42.60;;;;;;5111521;28;20035;-39
2021/01/06 06:55:22;;;;;;;2.92;2.08;;;20.90;42.60;;;;;;5110580;28;20054;-39
2021/01/06 06:58:03;;;;;;;3.40;2.17;;;20.90;42.60;;;;;;5112189;28;20028;-38
2021/01/06 07:00:29;;;;;;;2.95;2.17;;;20.90;43.20;;;;;;5111287;28;20054;-39
2021/01/06 07:02:59;;;;;;;3.72;2.45;;;20.90;42.60;;;;;;5112035;28;20063;-38
2021/01/06 07:05:43;;;;;;;3.15;2.10;;;20.90;42.50;;;;;;5111083;28;20020;-40
2021/01/06 07:08:18;;;;;;;3.00;1.95;;;20.90;42.60;;;;;;5111892;28;20031;-40
2021/01/06 07:10:53;;;;;;;3.25;2.42;;;20.90;42.60;;;;;;5111767;28;20039;-41
2021/01/06 07:13:21;;;;;;;2.95;2.20;;;20.90;42.60;;;;;;5110273;28;20081;-40
2021/01/06 07:15:54;;;;;;;3.15;2.30;;;20.90;42.60;;;;;;5112018;28;20027;-40
2021/01/06 07:18:39;;;;;;;3.13;2.35;;;20.90;42.50;;;;;;5110917;28;20024;-40
2021/01/06 07:21:17;;;;;;;3.50;2.08;;;20.90;42.50;;;;;;5111949;28;20027;-39
2021/01/06 07:24:03;;;;;;;3.15;2.03;;;20.90;42.50;;;;;;5111993;28;20066;-38
2021/01/06 07:26:41;;;;;;;3.33;2.00;;;20.90;42.50;;;;;;5110707;28;20373;-38
2021/01/06 07:29:10;;;;;;;4.93;2.00;;;20.90;42.60;;;;;;5112091;28;20032;-38
2021/01/06 07:31:54;;;;;;;2.95;2.08;;;20.90;42.50;;;;;;5110717;28;20115;-38
2021/01/06 07:34:40;;;;;;;3.38;2.22;;;20.90;42.50;;;;;;5111055;28;20028;-40
2021/01/06 07:37:29;;;;;;;4.35;2.05;;;20.90;42.50;;;;;;5111644;28;20063;-37
2021/01/06 07:40:00;;;;;;;3.35;2.10;;;20.90;42.50;;;;;;5111925;28;20032;-41
2021/01/06 07:42:40;;;;;;;5.13;2.15;;;20.90;42.50;;;;;;5111223;28;20076;-35
2021/01/06 07:45:35;;;;;;;3.10;2.05;;;20.90;42.60;;;;;;5114220;28;20024;-40
2021/01/06 07:48:07;;;;;;;3.67;1.77;;;20.90;42.70;;;;;;5111309;28;20127;-39
2021/01/06 07:50:34;;;;;;;5.90;2.63;;;20.90;42.90;;;;;;5112276;27;20051;-52
2021/01/06 07:53:14;;;;;;;5.15;2.08;;;20.90;43.00;;;;;;5135416;27;20031;-43
2021/01/06 07:55:59;;;;;;;6.50;2.28;;;20.90;43.20;;;;;;5135923;27;20110;-38
2021/01/06 07:58:40;;;;;;;4.55;2.35;;;20.90;43.20;;;;;;5135563;27;20031;-39
2021/01/06 08:01:31;;;;;;;6.32;2.00;;;21.00;43.40;;;;;;5135853;27;20034;-38
2021/01/06 08:04:08;;;;;;;5.28;2.05;;;21.00;43.40;;;;;;5135662;27;20023;-38
2021/01/06 08:06:55;;;;;;;4.57;1.80;;;21.00;43.40;;;;;;5131877;27;20675;-46
2021/01/06 08:09:38;;;;;;;5.90;2.90;;;21.10;43.40;;;;;;5112831;28;20077;-36
2021/01/06 08:12:42;;;;;;;3.35;2.90;;;20.80;36.20;;;;;;5114802;28;20059;-38
2021/01/06 08:15:30;;;;;;;3.90;3.50;;;19.20;33.80;;;;;;5114536;28;20035;-36
2021/01/06 08:18:11;;;;;;;5.57;2.90;;;18.30;34.60;;;;;;5114381;28;20076;-39
2021/01/06 08:21:13;;;;;;;2.15;1.92;;;18.70;36.20;;;;;;5114586;27;20027;-42
2021/01/06 08:24:04;;;;;;;3.03;2.22;;;19.40;37.10;;;;;;5134420;27;20035;-40
2021/01/06 08:26:32;;;;;;;4.57;2.37;;;20.00;37.40;;;;;;5133978;27;20080;-45
2021/01/06 08:29:09;;;;;;;8.25;2.65;;;20.40;37.60;;;;;;5133496;27;20034;-48
2021/01/06 08:31:37;;;;;;;4.18;2.33;;;20.40;35.30;;;;;;5134431;27;20039;-48
2021/01/06 08:34:04;;;;;;;3.22;2.50;;;20.30;34.30;;;;;;5135309;27;20406;-48
2021/01/06 08:36:33;;;;;;;4.03;2.40;;;20.20;33.80;;;;;;5134263;27;20035;-41
2021/01/06 08:39:16;;;;;;;4.25;2.70;;;20.00;33.40;;;;;;5134807;27;20124;-43
2021/01/06 08:41:44;;;;;;;3.22;2.30;;;20.00;33.60;;;;;;5133268;27;20050;-39
2021/01/06 08:44:49;;;;;;;4.63;2.15;;;20.10;35.00;;;;;;5134613;27;20027;-40
2021/01/06 08:47:34;;;;;;;3.38;1.90;;;20.40;36.10;;;;;;5134243;27;20421;-56
2021/01/06 08:50:26;;;;;;;6.78;2.17;;;20.60;36.40;;;;;;5134737;27;20096;-40
2021/01/06 08:52:57;;;;;;;7.85;1.80;;;20.80;36.80;;;;;;5088697;28;20064;-37
2021/01/06 08:55:30;;;;;;;5.20;1.52;;;20.90;37.10;;;;;;5092553;28;20024;-40
2021/01/06 08:58:17;;;;;;;3.90;1.65;;;21.00;37.10;;;;;;5126049;27;20366;-43
2021/01/06 09:00:57;;;;;;;5.57;1.67;;;21.00;37.30;;;;;;5093305;28;20052;-46
2021/01/06 09:03:55;;;;;;;4.53;1.60;;;21.00;37.50;;;;;;5092613;28;20115;-46
2021/01/06 09:06:22;;;;;;;2.15;1.42;;;21.10;37.80;;;;;;5092353;28;20461;-38
2021/01/06 09:09:03;;;;;;;7.95;1.77;;;21.10;37.70;;;;;;5113696;28;20050;-42
2021/01/06 09:11:34;;;;;;;7.00;2.00;;;21.20;37.80;;;;;;5112920;28;20527;-42
2021/01/06 09:14:31;;;;;;;3.03;1.70;;;21.20;37.90;;;;;;5111985;28;20058;-42
2021/01/06 09:17:36;;;;;;;3.75;1.65;;;21.30;38.00;;;;;;5122510;27;20024;-43
2021/01/06 09:20:10;;;;;;;3.40;1.65;;;21.30;38.20;;;;;;5132174;27;20380;-41
2021/01/06 09:22:36;;;;;;;5.95;1.40;;;21.30;38.20;;;;;;5133120;27;20026;-42
2021/01/06 09:25:04;;;;;;;3.75;1.60;;;21.40;38.30;;;;;;5133642;27;20030;-39
2021/01/06 09:27:32;;;;;;;3.05;1.50;;;21.40;38.30;;;;;;5133172;27;20115;-39
2021/01/06 09:29:59;;;;;;;3.00;1.48;;;21.50;38.40;;;;;;5133465;27;20041;-40
2021/01/06 09:32:31;;;;;;;3.25;1.70;;;21.50;38.50;;;;;;5132947;27;20030;-41
2021/01/06 09:34:59;;;;;;;3.35;1.20;;;21.40;38.60;;;;;;5134255;27;20019;-42
2021/01/06 09:37:31;;;;;;;3.28;1.20;;;21.40;38.60;;;;;;5133350;27;20463;-41
2021/01/06 09:40:22;;;;;;;3.33;1.52;;;21.40;38.70;;;;;;5133593;27;20345;-41
2021/01/06 09:42:55;;;;;;;2.75;1.10;;;21.50;39.00;;;;;;5113072;27;20047;-48
2021/01/06 09:45:24;;;;;;;4.78;1.42;;;21.60;39.10;;;;;;5112072;28;20043;-40
2021/01/06 09:47:55;;;;;;;5.88;1.58;;;21.60;39.50;;;;;;5112650;28;20036;-40
2021/01/06 09:50:44;;;;;;;2.65;1.30;;;21.60;39.80;;;;;;5113714;28;20027;-58
2021/01/06 09:53:15;;;;;;;5.75;1.52;;;21.60;40.00;;;;;;5092690;28;20024;-40
2021/01/06 09:55:44;;;;;;;3.33;1.73;;;21.60;40.30;;;;;;5091881;28;20099;-44
2021/01/06 09:58:16;;;;;;;2.97;1.48;;;21.50;40.60;;;;;;5092496;28;20032;-38
2021/01/06 10:01:06;;;;;;;4.22;1.40;;;21.50;41.00;;;;;;5091357;28;20028;-44
2021/01/06 10:03:35;;;;;;;2.78;1.92;;;21.40;38.90;;;;;;5090859;28;20076;-43
2021/01/06 10:06:10;;;;;;;2.97;1.55;;;21.00;35.80;;;;;;5091491;28;20123;-42
2021/01/06 10:08:46;;;;;;;5.03;1.50;;;21.00;39.50;;;;;;5110080;28;20024;-44
2021/01/06 10:11:40;;;;;;;4.68;1.63;;;21.10;39.60;;;;;;5112310;28;20050;-42
2021/01/06 10:14:39;;;;;;;4.15;1.60;;;21.20;39.80;;;;;;5112456;28;20364;-42
2021/01/06 10:17:20;;;;;;;3.83;1.35;;;21.20;40.20;;;;;;5112628;28;20181;-43
2021/01/06 10:20:02;;;;;;;2.30;1.27;;;21.20;40.30;;;;;;5112102;28;20023;-42
2021/01/06 10:22:54;;;;;;;3.35;1.35;;;21.20;40.70;;;;;;5129399;27;20051;-41
2021/01/06 10:25:26;;;;;;;1.92;1.35;;;21.20;40.80;;;;;;5132602;27;20030;-56
2021/01/06 10:28:10;;;;;;;2.65;1.05;;;21.20;41.00;;;;;;5132819;27;20496;-43
2021/01/06 10:30:36;;;;;;;7.03;1.23;;;21.20;41.20;;;;;;5131971;28;20031;-44
2021/01/06 10:33:16;;;;;;;4.35;1.20;;;21.20;41.60;;;;;;5132879;27;20023;-47
2021/01/06 10:36:03;;;;;;;8.20;1.60;;;21.30;41.80;;;;;;5132020;28;20028;-42
2021/01/06 10:38:30;;;;;;;4.57;1.50;;;21.30;42.10;;;;;;5130718;28;20084;-38
2021/01/06 10:41:18;;;;;;;6.63;1.65;;;21.30;43.10;;;;;;5132543;27;20380;-37
2021/01/06 10:43:47;;;;;;;5.53;1.60;;;21.30;43.30;;;;;;5132272;28;20027;-41
2021/01/06 10:46:38;;;;;;;8.93;1.95;;;21.30;43.30;;;;;;5132259;27;20532;-41
2021/01/06 10:49:17;;;;;;;7.72;1.58;;;21.30;43.70;;;;;;5132455;27;20023;-42
2021/01/06 10:52:00;;;;;;;6.95;1.60;;;21.30;43.70;;;;;;5120322;28;20470;-40
2021/01/06 10:54:40;;;;;;;4.80;1.65;;;21.30;43.70;;;;;;5111306;28;20376;-39
2021/01/06 10:57:33;;;;;;;7.40;1.35;;;21.30;43.70;;;;;;5112268;28;20102;-39
2021/01/06 11:00:08;;;;;;;7.07;1.52;;;21.30;43.80;;;;;;5093657;28;20032;-53
2021/01/06 11:02:55;;;;;;;8.68;1.70;;;21.30;43.90;;;;;;5112026;28;20027;-44
2021/01/06 11:05:25;;;;;;;7.78;1.63;;;21.40;44.00;;;;;;5112074;28;20015;-57
2021/01/06 11:08:18;;;;;;;5.43;1.45;;;21.40;44.20;;;;;;5111535;28;20451;-43
2021/01/06 11:10:53;;;;;;;11.80;1.70;;;21.40;44.30;;;;;;5111082;28;20139;-40
2021/01/06 11:14:01;;;;;;;6.13;2.10;;;21.40;44.30;;;;;;5111919;28;20114;-43
2021/01/06 11:16:35;;;;;;;13.63;2.17;;;21.40;44.40;;;;;;5067020;28;20263;-55
2021/01/06 11:19:01;;;;;;;15.93;1.83;;;21.40;44.70;;;;;;5110151;28;20036;-40
2021/01/06 11:21:40;;;;;;;9.93;2.85;;;21.40;44.70;;;;;;5123425;27;20031;-42
2021/01/06 11:24:34;;;;;;;8.93;1.83;;;21.40;44.90;;;;;;5136412;27;20019;-39
2021/01/06 11:27:01;;;;;;;7.65;1.40;;;21.40;45.00;;;;;;5135880;27;20116;-44
2021/01/06 11:29:54;;;;;;;9.05;1.60;;;21.30;45.30;;;;;;5135094;27;20384;-44
2021/01/06 11:32:26;;;;;;;10.95;2.17;;;21.30;45.40;;;;;;5136202;27;20441;-42
2021/01/06 11:35:25;;;;;;;8.70;1.55;;;21.40;45.40;;;;;;5136030;27;20023;-42
2021/01/06 11:37:52;;;;;;;10.10;1.70;;;21.40;45.90;;;;;;5136073;27;20030;-43
2021/01/06 11:40:26;;;;;;;5.57;1.70;;;21.30;46.00;;;;;;5135846;27;20046;-44
2021/01/06 11:42:55;;;;;;;5.47;1.73;;;21.30;46.40;;;;;;5135796;27;20423;-44
2021/01/06 11:45:26;;;;;;;6.93;1.73;;;21.30;46.50;;;;;;5132802;27;20023;-62
2021/01/06 11:47:55;;;;;;;6.25;1.83;;;21.20;46.50;;;;;;5114947;28;20035;-41
2021/01/06 11:50:40;;;;;;;11.20;2.42;;;21.20;46.70;;;;;;5113796;28;20089;-42
2021/01/06 11:53:28;;;;;;;4.53;1.48;;;21.30;46.70;;;;;;5094687;28;20028;-41
2021/01/06 11:56:22;;;;;;;5.47;1.65;;;21.30;46.60;;;;;;5114359;28;20028;-42
2021/01/06 11:59:16;;;;;;;8.77;2.00;;;21.30;46.40;;;;;;5114750;28;20546;-39
2021/01/06 12:02:05;;;;;;;7.35;1.95;;;21.20;47.00;;;;;;5112575;28;20066;-43
2021/01/06 12:05:07;;;;;;;8.93;1.90;;;21.20;46.60;;;;;;5113947;28;20023;-43
2021/01/06 12:07:57;;;;;;;10.95;1.60;;;21.20;46.50;;;;;;5113858;28;20063;-40
2021/01/06 12:10:47;;;;;;;9.18;2.00;;;21.20;46.50;;;;;;5112694;28;20438;-59
2021/01/06 12:13:13;;;;;;;12.65;1.60;;;21.20;46.60;;;;;;5114512;28;20028;-42
2021/01/06 12:15:43;;;;;;;6.40;2.67;;;21.20;46.50;;;;;;5111594;27;20034;-42
2021/01/06 12:18:22;;;;;;;5.35;3.88;;;20.90;38.80;;;;;;5114182;28;20114;-45
2021/01/06 12:20:49;;;;;;;26.65;12.52;;;18.00;36.80;;;;;;5112916;27;20027;-41
2021/01/06 12:23:14;;;;;;;13.77;9.23;;;16.40;40.10;;;;;;5135095;27;20027;-42
2021/01/06 12:25:44;;;;;;;10.25;6.53;;;15.60;41.90;;;;;;5134460;27;20068;-41
2021/01/06 12:28:22;;;;;;;7.43;5.38;;;15.00;42.90;;;;;;5110775;27;20046;-48
2021/01/06 12:31:03;;;;;;;4.70;3.90;;;15.00;43.00;;;;;;5111011;28;20040;-44
2021/01/06 12:33:34;;;;;;;6.50;4.43;;;15.00;42.60;;;;;;5113188;27;20027;-46
2021/01/06 12:36:18;;;;;;;4.90;4.22;;;14.70;42.50;;;;;;5114034;28;20035;-37
2021/01/06 12:38:45;;;;;;;5.07;3.90;;;14.30;43.30;;;;;;5113959;28;20024;-45
2021/01/06 12:41:19;;;;;;;5.13;3.80;;;14.50;43.00;;;;;;5114197;27;20028;-44
2021/01/06 12:44:13;;;;;;;4.22;3.30;;;15.00;42.40;;;;;;5113775;28;20026;-44
2021/01/06 12:46:49;;;;;;;4.50;2.72;;;16.50;39.90;;;;;;5107831;28;20068;-43
2021/01/06 12:49:58;;;;;;;3.90;2.88;;;17.80;39.30;;;;;;5113661;28;20023;-48
2021/01/06 12:52:29;;;;;;;4.72;2.00;;;18.40;39.00;;;;;;5116928;27;20065;-58
2021/01/06 12:55:04;;;;;;;4.97;2.78;;;18.80;38.80;;;;;;5132933;27;20027;-46
2021/01/06 12:57:45;;;;;;;5.20;2.13;;;19.10;38.80;;;;;;5132905;27;20487;-44
2021/01/06 13:00:30;;;;;;;7.00;2.50;;;19.30;38.60;;;;;;5132751;27;20372;-44
2021/01/06 13:03:25;;;;;;;3.78;2.13;;;19.50;38.80;;;;;;5134140;27;20341;-45
2021/01/06 13:05:54;;;;;;;3.00;2.53;;;19.60;39.10;;;;;;5133825;27;20024;-53
2021/01/06 13:08:31;;;;;;;5.35;2.58;;;19.80;39.40;;;;;;5117756;27;20023;-36
2021/01/06 13:11:11;;;;;;;2.85;2.05;;;19.90;39.60;;;;;;5112184;28;20040;-39
2021/01/06 13:13:39;;;;;;;5.32;2.63;;;19.90;39.80;;;;;;5112171;28;20024;-38
2021/01/06 13:16:18;;;;;;;4.28;2.25;;;20.00;41.60;;;;;;5113087;28;20042;-41
2021/01/06 13:18:55;;;;;;;4.75;2.85;;;20.10;40.70;;;;;;5111897;28;20788;-45
2021/01/06 13:21:36;;;;;;;5.25;2.70;;;20.20;40.30;;;;;;5110563;27;20464;-44
2021/01/06 13:24:06;;;;;;;3.88;2.70;;;20.30;40.20;;;;;;5133244;27;20027;-43
2021/01/06 13:26:35;;;;;;;4.82;2.50;;;20.30;40.00;;;;;;5117372;27;20035;-38
2021/01/06 13:29:24;;;;;;;7.15;2.35;;;20.30;40.10;;;;;;5112750;28;20031;-43
2021/01/06 13:31:49;;;;;;;3.88;2.13;;;20.40;40.10;;;;;;5112912;28;20048;-37